Terminal Aerodrome Forecast
Issued by NWS

Home | Current Version | Previous Version | Text Only | Print | Product List | Glossary Off
Versions: 1 2 3 4 5 6 7 8 9 10 11 12 13 14

675
FTUS43 KGRB 261720
TAFAUW
TAF
KAUW 261720Z 2618/2718 22006KT P6SM SCT100
     FM270100 21003KT P6SM SKC
     FM271500 29004KT P6SM SKC
      AMD NOT SKED=

USA.gov is the U.S. government's official web portal to all federal, state and local government web resources and services.